Terminal Aerodrome Forecast
Issued by NWS

Home | Current Version | Previous Version | Text Only | Print | Product List | Glossary On
Versions: 1 2 3 4 5 6 7 8 9 10 11 12 13 14 15 16 17 18 19 20 21 22 23 24 25 26 27 28
000
FTUS41 KOKX 291537 AAB
TAFSWF
TAF AMD
KSWF 291537Z 2916/3018 07012KT P6SM BKN025 BKN040
     FM291800 05007KT P6SM SCT100
     FM292100 05005KT P6SM VCSH BKN080
     FM300000 VRB03KT P6SM SCT080 SCT120
     FM300600 VRB03KT 6SM BR SCT250
     FM301200 VRB03KT P6SM BKN120
     FM301600 03005KT P6SM VCSH BKN060
      AMD NOT SKED=

USA.gov is the U.S. government's official web portal to all federal, state and local government web resources and services.